DAL339 KSLC-KBUR
Flight info
| Callsign | DAL339 |
|---|---|
| Flight time | N/A |
| Altitude | 33000 |
| Route | ARCHZ1 WINEN EEVUN/N0428F340 Q73 GUNTR Q96 PURSE JANNY5 |
| Aircraft | A320/M-SDE3FGHIRWY/LB1 |
Departure
| Time | 2026-05-05 22:29 |
|---|---|
| Airport | Salt Lake City International Airport (KSLC) |
Arrival
| Time | N/A |
|---|---|
| Airport | Hollywood Burbank/Bob Hope Airport (KBUR) |
| Time | Latitude | Longitude | Altitude | Speed | Heading |
|---|---|---|---|---|---|
| 2026-05-05 22:07 | 40.78610 | -111.98716 | 4232 ft | 0 kts | 175° |
| 2026-05-05 22:17 | 40.78630 | -111.98719 | 4231 ft | 4 kts | 172° |
| 2026-05-05 22:17 | 40.78657 | -111.98726 | 4231 ft | 4 kts | 162° |
| 2026-05-05 22:17 | 40.78680 | -111.98740 | 4231 ft | 4 kts | 133° |
| 2026-05-05 22:18 | 40.78688 | -111.98760 | 4230 ft | 0 kts | 84° |
| 2026-05-05 22:20 | 40.78690 | -111.98744 | 4232 ft | 5 kts | 83° |
| 2026-05-05 22:20 | 40.78695 | -111.98670 | 4232 ft | 12 kts | 85° |
| 2026-05-05 22:20 | 40.78702 | -111.98540 | 4232 ft | 14 kts | 85° |
| 2026-05-05 22:20 | 40.78710 | -111.98405 | 4231 ft | 16 kts | 85° |
| 2026-05-05 22:21 | 40.78719 | -111.98257 | 4232 ft | 16 kts | 85° |
| 2026-05-05 22:21 | 40.78731 | -111.98102 | 4232 ft | 17 kts | 84° |
| 2026-05-05 22:21 | 40.78743 | -111.97945 | 4234 ft | 18 kts | 84° |
| 2026-05-05 22:21 | 40.78755 | -111.97777 | 4233 ft | 16 kts | 87° |
| 2026-05-05 22:22 | 40.78726 | -111.97675 | 4233 ft | 11 kts | 153° |
| 2026-05-05 22:22 | 40.78649 | -111.97671 | 4233 ft | 12 kts | 178° |
| 2026-05-05 22:22 | 40.78555 | -111.97660 | 4230 ft | 16 kts | 173° |
| 2026-05-05 22:22 | 40.78394 | -111.97637 | 4228 ft | 29 kts | 174° |
| 2026-05-05 22:23 | 40.78189 | -111.97610 | 4227 ft | 30 kts | 175° |
| 2026-05-05 22:23 | 40.77985 | -111.97585 | 4278 ft | 29 kts | 174° |
| 2026-05-05 22:23 | 40.77794 | -111.97519 | 4280 ft | 25 kts | 174° |
| 2026-05-05 22:23 | 40.77622 | -111.97497 | 4282 ft | 25 kts | 174° |
| 2026-05-05 22:24 | 40.77528 | -111.97485 | 4280 ft | 12 kts | 174° |
| 2026-05-05 22:24 | 40.77468 | -111.97474 | 4280 ft | 6 kts | 168° |
| 2026-05-05 22:24 | 40.77463 | -111.97471 | 4280 ft | 0 kts | 162° |
| 2026-05-05 22:27 | 40.77459 | -111.97470 | 4283 ft | 4 kts | 160° |
| 2026-05-05 22:27 | 40.77458 | -111.97396 | 4275 ft | 10 kts | 58° |
| 2026-05-05 22:27 | 40.77501 | -111.97328 | 4276 ft | 9 kts | 23° |
| 2026-05-05 22:27 | 40.77540 | -111.97325 | 4276 ft | 0 kts | 355° |
| 2026-05-05 22:28 | 40.77550 | -111.97326 | 4276 ft | 8 kts | 355° |
| 2026-05-05 22:28 | 40.77857 | -111.97363 | 4276 ft | 80 kts | 355° |
| 2026-05-05 22:28 | 40.78621 | -111.97442 | 4229 ft | 138 kts | 357° |
| 2026-05-05 22:28 | 40.79746 | -111.97565 | 4256 ft | 181 kts | 356° |
| 2026-05-05 22:29 | 40.80988 | -111.97687 | 5000 ft | 179 kts | 354° |
| 2026-05-05 22:29 | 40.82227 | -111.97840 | 5755 ft | 178 kts | 353° |
| 2026-05-05 22:29 | 40.83491 | -111.98020 | 6220 ft | 192 kts | 349° |
| 2026-05-05 22:29 | 40.84724 | -111.98847 | 6433 ft | 213 kts | 318° |
| 2026-05-05 22:30 | 40.85814 | -112.00334 | 6632 ft | 238 kts | 311° |
| 2026-05-05 22:30 | 40.86721 | -112.02278 | 6956 ft | 262 kts | 286° |
| 2026-05-05 22:30 | 40.86792 | -112.04691 | 7675 ft | 270 kts | 259° |
| 2026-05-05 22:30 | 40.85915 | -112.06905 | 8508 ft | 279 kts | 233° |
| 2026-05-05 22:31 | 40.84728 | -112.08936 | 9370 ft | 281 kts | 237° |
| 2026-05-05 22:31 | 40.83633 | -112.11036 | 10177 ft | 283 kts | 239° |
| 2026-05-05 22:31 | 40.82507 | -112.13307 | 10467 ft | 307 kts | 239° |
| 2026-05-05 22:31 | 40.81302 | -112.15751 | 10781 ft | 326 kts | 239° |
| 2026-05-05 22:32 | 40.80039 | -112.18281 | 11388 ft | 334 kts | 238° |
| 2026-05-05 22:32 | 40.78735 | -112.20853 | 12054 ft | 340 kts | 238° |
| 2026-05-05 22:32 | 40.77362 | -112.23431 | 12706 ft | 347 kts | 232° |
| 2026-05-05 22:32 | 40.75603 | -112.25660 | 13385 ft | 356 kts | 218° |
| 2026-05-05 22:33 | 40.73442 | -112.27305 | 14010 ft | 364 kts | 204° |
| 2026-05-05 22:33 | 40.70998 | -112.28234 | 14641 ft | 369 kts | 190° |
| 2026-05-05 22:33 | 40.68445 | -112.28742 | 15292 ft | 373 kts | 189° |
| 2026-05-05 22:33 | 40.65872 | -112.29257 | 15933 ft | 376 kts | 189° |
| 2026-05-05 22:34 | 40.63271 | -112.29780 | 16570 ft | 380 kts | 190° |
| 2026-05-05 22:34 | 40.60648 | -112.30312 | 17204 ft | 383 kts | 190° |
| 2026-05-05 22:34 | 40.58000 | -112.30853 | 17832 ft | 387 kts | 190° |
| 2026-05-05 22:34 | 40.55366 | -112.31607 | 18410 ft | 389 kts | 199° |
| 2026-05-05 22:35 | 40.52772 | -112.32678 | 18949 ft | 392 kts | 199° |
| 2026-05-05 22:35 | 40.50155 | -112.33753 | 19502 ft | 395 kts | 199° |
| 2026-05-05 22:35 | 40.47520 | -112.34830 | 20041 ft | 399 kts | 199° |
| 2026-05-05 22:35 | 40.44862 | -112.35915 | 20592 ft | 402 kts | 199° |
| 2026-05-05 22:36 | 40.42181 | -112.37007 | 21132 ft | 405 kts | 199° |
| 2026-05-05 22:36 | 40.39480 | -112.38105 | 21663 ft | 408 kts | 199° |
| 2026-05-05 22:36 | 40.36756 | -112.39213 | 22214 ft | 411 kts | 198° |
| 2026-05-05 22:36 | 40.34018 | -112.40329 | 22762 ft | 414 kts | 198° |
| 2026-05-05 22:37 | 40.31260 | -112.41456 | 23271 ft | 417 kts | 198° |
| 2026-05-05 22:37 | 40.28478 | -112.42593 | 23717 ft | 420 kts | 198° |
| 2026-05-05 22:37 | 40.25670 | -112.43735 | 24095 ft | 425 kts | 198° |
| 2026-05-05 22:37 | 40.22837 | -112.44887 | 24462 ft | 429 kts | 198° |
| 2026-05-05 22:38 | 40.19974 | -112.46051 | 24808 ft | 433 kts | 198° |
| 2026-05-05 22:38 | 40.17167 | -112.47516 | 25120 ft | 437 kts | 208° |
| 2026-05-05 22:38 | 40.14469 | -112.49401 | 25457 ft | 441 kts | 209° |
| 2026-05-05 22:38 | 40.11759 | -112.51316 | 25816 ft | 445 kts | 209° |
| 2026-05-05 22:39 | 40.09024 | -112.53252 | 26160 ft | 449 kts | 209° |
| 2026-05-05 22:39 | 40.06268 | -112.55201 | 26482 ft | 453 kts | 209° |
| 2026-05-05 22:39 | 40.03483 | -112.57165 | 26819 ft | 457 kts | 209° |
| 2026-05-05 22:39 | 40.00676 | -112.59136 | 27122 ft | 460 kts | 209° |
| 2026-05-05 22:40 | 39.97844 | -112.61120 | 27428 ft | 464 kts | 208° |
| 2026-05-05 22:40 | 39.94986 | -112.63116 | 27744 ft | 468 kts | 208° |
| 2026-05-05 22:40 | 39.92105 | -112.65129 | 28046 ft | 472 kts | 209° |
| 2026-05-05 22:40 | 39.89240 | -112.67130 | 28341 ft | 475 kts | 208° |
| 2026-05-05 22:41 | 39.86313 | -112.69173 | 28632 ft | 479 kts | 208° |
| 2026-05-05 22:41 | 39.83368 | -112.71231 | 28926 ft | 482 kts | 208° |
| 2026-05-05 22:41 | 39.80401 | -112.73305 | 29195 ft | 486 kts | 208° |
| 2026-05-05 22:41 | 39.77411 | -112.75388 | 29474 ft | 489 kts | 208° |
| 2026-05-05 22:42 | 39.74403 | -112.77479 | 29760 ft | 492 kts | 208° |
| 2026-05-05 22:42 | 39.71372 | -112.79582 | 29977 ft | 496 kts | 207° |
| 2026-05-05 22:42 | 39.68281 | -112.81601 | 30193 ft | 498 kts | 202° |
| 2026-05-05 22:42 | 39.65018 | -112.83117 | 30456 ft | 498 kts | 194° |
| 2026-05-05 22:43 | 39.61694 | -112.84432 | 30702 ft | 500 kts | 194° |
| 2026-05-05 22:43 | 39.58360 | -112.85755 | 30925 ft | 502 kts | 195° |
| 2026-05-05 22:43 | 39.55014 | -112.87089 | 31160 ft | 505 kts | 195° |
| 2026-05-05 22:43 | 39.51652 | -112.88433 | 31392 ft | 506 kts | 195° |
| 2026-05-05 22:44 | 39.48288 | -112.89779 | 31704 ft | 506 kts | 195° |
| 2026-05-05 22:44 | 39.44921 | -112.91121 | 32018 ft | 506 kts | 195° |
| 2026-05-05 22:44 | 39.41553 | -112.92461 | 32325 ft | 506 kts | 194° |
| 2026-05-05 22:44 | 39.38184 | -112.93797 | 32618 ft | 507 kts | 194° |
| 2026-05-05 22:45 | 39.34810 | -112.95129 | 32748 ft | 505 kts | 194° |
| 2026-05-05 22:45 | 39.31488 | -112.96441 | 32772 ft | 494 kts | 194° |
| 2026-05-05 22:45 | 39.28218 | -112.97732 | 32770 ft | 490 kts | 194° |
| 2026-05-05 22:46 | 39.21720 | -113.00309 | 32783 ft | 488 kts | 193° |
| 2026-05-05 22:46 | 39.15234 | -113.02869 | 32764 ft | 487 kts | 193° |